Hillsdale, Wisconsin
Current Conditions -  °F | °C
As of 6:35 AM on Sunday 23 Nov 2014 (Local Time) from KRPD Reporting Station
Moderate Fog Moderate Fog  
Wind Chill: 37°   Ceiling: 300
Heat Index: 40°   Visibility: 0mi
Dew Point: 40°   Wind: 5mph
Humidity: 98%   Direction: 120°ESE
Pressure: 29.48"   Gusts: NA
Location:  45.32°N, 91.86°W
Report Text: KRPD 231235Z AUTO 12004KT M1/4SM FG OVC003 05/04 A2948 RMK AO2 T00450042
Loading
Personal Weather Stations






























Interactive Weather Map New forecast layout! Learn more

10-Day Weather Forecast

Advertisements
Track Severe Weather on mobile